CSAV Lonquen — A8OT2 — position and weather

sailwx.info

Track history (hours):
 
Tides and Currents Weather Stations Pressure Air Temp Water Temp Dewpoint Dewpoint Depression Visibility Wind Speed Wind Dir Waves Ship Positions

CSAV Lonquen

Last reported at 2016-Sep-25 09:33 UTC. Time now 2016-Sep-25 10:41 UTC.
Position N 51°23' E 004°13'.

Length 261 m; draft 10.5 m.

Type: Ship (hazmat cat A). MMSI: 636091501.

Date/timePositionNaut miles runAvg speedWind from/ knotsBaromVisibWave heightAir tempDewpointWater temp
2016-Sep-25 09:33N 51°23' E 004°13'2311.4
2016-Sep-25 07:33N 51°26' E 003°36'26 8.5
2016-Sep-25 04:33N 51°48' E 003°15'5513.8
2016-Sep-25 00:34N 52°41' E 003°37'2914.5
2016-Sep-24 22:33N 53°02' E 004°10'1414.1
2016-Sep-24 21:33N 53°13' E 004°25'2713.4
2016-Sep-24 19:34N 53°33' E 004°56'1414.5
2016-Sep-24 18:34N 53°39' E 005°18'1414.4
2016-Sep-24 17:34N 53°43' E 005°41'1414.3
2016-Sep-24 16:34N 53°48' E 006°04'2914.4
2016-Sep-24 14:33N 53°54' E 006°52'2914.3
2016-Sep-24 12:33N 53°59' E 007°40'2914.6
2016-Sep-24 10:34N 53°42' E 008°20'9 8.7
2016-Sep-24 09:32N 53°36' E 008°31'0 0.0
2016-Sep-24 03:32N 53°36' E 008°31'0 0.0
2016-Sep-24 02:32N 53°36' E 008°31'0 0.0
2016-Sep-24 01:32N 53°36' E 008°31'0 0.0
2016-Sep-24 00:32N 53°36' E 008°31'0 0.0
2016-Sep-23 19:32N 53°36' E 008°31'0 0.0
2016-Sep-23 17:32N 53°36' E 008°31'0 0.0
2016-Sep-23 16:32N 53°36' E 008°31'0 0.0
2016-Sep-23 15:32N 53°36' E 008°31'0 0.0
2016-Sep-23 13:32N 53°36' E 008°31'28 7.2
2016-Sep-23 09:33N 53°52' E 007°51'4 1.2
2016-Sep-23 06:32N 53°55' E 007°48'0 0.1
2016-Sep-23 04:32N 53°55' E 007°49'0 0.0
2016-Sep-23 03:32N 53°55' E 007°49'0 0.0
2016-Sep-23 02:29N 53°55' E 007°49'0 0.0
2016-Sep-23 01:23N 53°55' E 007°49'0 0.0
2016-Sep-23 00:32N 53°55' E 007°49'0 0.0
2016-Sep-22 23:32N 53°55' E 007°49'0 0.1
2016-Sep-22 20:32N 53°55' E 007°48'64 8.0
2016-Sep-22 12:33N 53°42' E 006°02'9712.2
2016-Sep-22 04:33N 52°37' E 004°00'1312.9
2016-Sep-22 03:33N 52°25' E 003°53'3311.1
2016-Sep-22 00:33N 51°55' E 004°15'7 6.8
2016-Sep-21 23:34N 51°54' E 004°26'0 0.1
2016-Sep-21 22:33N 51°54' E 004°26'0 0.0
2016-Sep-21 19:32N 51°54' E 004°26'0 0.0
2016-Sep-21 16:32N 51°54' E 004°26'0 0.0
2016-Sep-21 09:32N 51°54' E 004°26'0 0.0
2016-Sep-21 08:32N 51°54' E 004°26'0 0.0
2016-Sep-21 05:32N 51°54' E 004°26'0 0.0
2016-Sep-21 03:32N 51°54' E 004°26'2 2.3
2016-Sep-21 02:33N 51°54' E 004°23'31 2.4
2016-Sep-20 13:30N 51°55' E 003°32'3410.6
2016-Sep-20 10:16N 51°50' E 002°37'2112.4
2016-Sep-20 08:33N 51°51' E 002°03'1212.2
2016-Sep-20 07:34N 51°49' E 001°43'1110.7
2016-Sep-20 06:33N 51°56' E 001°30'8 1.9
2016-Sep-20 02:33N 51°58' E 001°18'0 0.0
2016-Sep-19 23:33N 51°58' E 001°18'0 0.0
2016-Sep-19 19:33N 51°58' E 001°18'0 0.0
2016-Sep-19 18:33N 51°58' E 001°18'0 0.0
2016-Sep-19 16:33N 51°58' E 001°18'0 0.0
2016-Sep-19 14:33N 51°58' E 001°18'0 0.0
2016-Sep-19 13:33N 51°58' E 001°18'0 0.0
2016-Sep-19 12:33N 51°58' E 001°18'0 0.0
2016-Sep-19 11:33N 51°58' E 001°18'0 0.0
2016-Sep-19 09:33N 51°57' E 001°18'0 0.0
2016-Sep-19 07:33N 51°58' E 001°18'0 0.0
2016-Sep-19 06:33N 51°58' E 001°18'15 5.0
2016-Sep-19 03:33N 51°52' E 001°40'1010.0
2016-Sep-19 02:33N 51°43' E 001°49'2914.3
2016-Sep-19 00:33N 51°15' E 001°51'7714.5
2016-Sep-18 19:13N 50°24' E 000°19'12614.1
2016-Sep-18 10:19N 49°51' W 002°50'1215.4
2016-Sep-18 09:33N 49°45' W 003°06'70116.7
2016-Sep-16 15:33N 39°07' W 009°50'5418.0
2016-Sep-16 12:33N 38°13' W 009°43'24016.0
2016-Sep-15 21:33N 35°59' W 005°34'1515.4
2016-Sep-15 20:33N 36°03' W 005°15'  
Track history (hours):
 
Tides and Currents Weather Stations Pressure Air Temp Water Temp Dewpoint Dewpoint Depression Visibility Wind Speed Wind Dir Waves Ship Positions

CSAV Lonquen

Last reported at 2016-Sep-25 09:33 UTC. Time now 2016-Sep-25 10:41 UTC.
Position N 51°23' E 004°13'.

Length 261 m; draft 10.5 m.

Type: Ship (hazmat cat A). MMSI: 636091501.

Date/timePositionNaut miles runAvg speedWind from/ knotsBaromVisibWave heightAir tempDewpointWater temp
2016-Sep-25 09:33N 51°23' E 004°13'2311.4
2016-Sep-25 07:33N 51°26' E 003°36'26 8.5
2016-Sep-25 04:33N 51°48' E 003°15'5513.8
2016-Sep-25 00:34N 52°41' E 003°37'2914.5
2016-Sep-24 22:33N 53°02' E 004°10'1414.1
2016-Sep-24 21:33N 53°13' E 004°25'2713.4
2016-Sep-24 19:34N 53°33' E 004°56'1414.5
2016-Sep-24 18:34N 53°39' E 005°18'1414.4
2016-Sep-24 17:34N 53°43' E 005°41'1414.3
2016-Sep-24 16:34N 53°48' E 006°04'2914.4
2016-Sep-24 14:33N 53°54' E 006°52'2914.3
2016-Sep-24 12:33N 53°59' E 007°40'2914.6
2016-Sep-24 10:34N 53°42' E 008°20'9 8.7
2016-Sep-24 09:32N 53°36' E 008°31'0 0.0
2016-Sep-24 03:32N 53°36' E 008°31'0 0.0
2016-Sep-24 02:32N 53°36' E 008°31'0 0.0
2016-Sep-24 01:32N 53°36' E 008°31'0 0.0
2016-Sep-24 00:32N 53°36' E 008°31'0 0.0
2016-Sep-23 19:32N 53°36' E 008°31'0 0.0
2016-Sep-23 17:32N 53°36' E 008°31'0 0.0
2016-Sep-23 16:32N 53°36' E 008°31'0 0.0
2016-Sep-23 15:32N 53°36' E 008°31'0 0.0
2016-Sep-23 13:32N 53°36' E 008°31'28 7.2
2016-Sep-23 09:33N 53°52' E 007°51'4 1.2
2016-Sep-23 06:32N 53°55' E 007°48'0 0.1
2016-Sep-23 04:32N 53°55' E 007°49'0 0.0
2016-Sep-23 03:32N 53°55' E 007°49'0 0.0
2016-Sep-23 02:29N 53°55' E 007°49'0 0.0
2016-Sep-23 01:23N 53°55' E 007°49'0 0.0
2016-Sep-23 00:32N 53°55' E 007°49'0 0.0
2016-Sep-22 23:32N 53°55' E 007°49'0 0.1
2016-Sep-22 20:32N 53°55' E 007°48'64 8.0
2016-Sep-22 12:33N 53°42' E 006°02'9712.2
2016-Sep-22 04:33N 52°37' E 004°00'1312.9
2016-Sep-22 03:33N 52°25' E 003°53'3311.1
2016-Sep-22 00:33N 51°55' E 004°15'7 6.8
2016-Sep-21 23:34N 51°54' E 004°26'0 0.1
2016-Sep-21 22:33N 51°54' E 004°26'0 0.0
2016-Sep-21 19:32N 51°54' E 004°26'0 0.0
2016-Sep-21 16:32N 51°54' E 004°26'0 0.0
2016-Sep-21 09:32N 51°54' E 004°26'0 0.0
2016-Sep-21 08:32N 51°54' E 004°26'0 0.0
2016-Sep-21 05:32N 51°54' E 004°26'0 0.0
2016-Sep-21 03:32N 51°54' E 004°26'2 2.3
2016-Sep-21 02:33N 51°54' E 004°23'31 2.4
2016-Sep-20 13:30N 51°55' E 003°32'3410.6
2016-Sep-20 10:16N 51°50' E 002°37'2112.4
2016-Sep-20 08:33N 51°51' E 002°03'1212.2
2016-Sep-20 07:34N 51°49' E 001°43'1110.7
2016-Sep-20 06:33N 51°56' E 001°30'8 1.9
2016-Sep-20 02:33N 51°58' E 001°18'0 0.0
2016-Sep-19 23:33N 51°58' E 001°18'0 0.0
2016-Sep-19 19:33N 51°58' E 001°18'0 0.0
2016-Sep-19 18:33N 51°58' E 001°18'0 0.0
2016-Sep-19 16:33N 51°58' E 001°18'0 0.0
2016-Sep-19 14:33N 51°58' E 001°18'0 0.0
2016-Sep-19 13:33N 51°58' E 001°18'0 0.0
2016-Sep-19 12:33N 51°58' E 001°18'0 0.0
2016-Sep-19 11:33N 51°58' E 001°18'0 0.0
2016-Sep-19 09:33N 51°57' E 001°18'0 0.0
2016-Sep-19 07:33N 51°58' E 001°18'0 0.0
2016-Sep-19 06:33N 51°58' E 001°18'15 5.0
2016-Sep-19 03:33N 51°52' E 001°40'1010.0
2016-Sep-19 02:33N 51°43' E 001°49'2914.3
2016-Sep-19 00:33N 51°15' E 001°51'7714.5
2016-Sep-18 19:13N 50°24' E 000°19'12614.1
2016-Sep-18 10:19N 49°51' W 002°50'1215.4
2016-Sep-18 09:33N 49°45' W 003°06'70116.7
2016-Sep-16 15:33N 39°07' W 009°50'5418.0
2016-Sep-16 12:33N 38°13' W 009°43'24016.0
2016-Sep-15 21:33N 35°59' W 005°34'1515.4
2016-Sep-15 20:33N 36°03' W 005°15'  

Dump ship's entire track history